sensor_id;sensor_type;location;lat;lon;timestamp;P1;durP1;ratioP1;P2;durP2;ratioP2
52708;SDS011;38606;52.986;6.980;2024-01-30T00:01:51;24.83;;;16.33;;
52708;SDS011;38606;52.986;6.980;2024-01-30T00:04:17;28.15;;;16.48;;
52708;SDS011;38606;52.986;6.980;2024-01-30T00:06:46;23.88;;;16.10;;
52708;SDS011;38606;52.986;6.980;2024-01-30T00:09:11;24.67;;;15.82;;
52708;SDS011;38606;52.986;6.980;2024-01-30T00:11:37;23.77;;;15.85;;
52708;SDS011;38606;52.986;6.980;2024-01-30T00:14:03;24.48;;;15.65;;
52708;SDS011;38606;52.986;6.980;2024-01-30T00:16:29;24.05;;;16.90;;
52708;SDS011;38606;52.986;6.980;2024-01-30T00:18:56;24.92;;;16.30;;
52708;SDS011;38606;52.986;6.980;2024-01-30T00:21:22;27.27;;;15.75;;
52708;SDS011;38606;52.986;6.980;2024-01-30T00:23:48;23.92;;;16.17;;
52708;SDS011;38606;52.986;6.980;2024-01-30T00:26:14;22.90;;;14.88;;
52708;SDS011;38606;52.986;6.980;2024-01-30T00:28:42;27.13;;;16.02;;
52708;SDS011;38606;52.986;6.980;2024-01-30T00:31:08;26.60;;;15.77;;
52708;SDS011;38606;52.986;6.980;2024-01-30T00:33:40;25.90;;;16.17;;
52708;SDS011;38606;52.986;6.980;2024-01-30T00:36:07;25.75;;;16.70;;
52708;SDS011;38606;52.986;6.980;2024-01-30T00:38:33;25.45;;;16.83;;
52708;SDS011;38606;52.986;6.980;2024-01-30T00:40:59;25.70;;;16.05;;
52708;SDS011;38606;52.986;6.980;2024-01-30T00:43:25;25.60;;;15.82;;
52708;SDS011;38606;52.986;6.980;2024-01-30T00:45:51;27.10;;;16.45;;
52708;SDS011;38606;52.986;6.980;2024-01-30T00:48:20;23.90;;;16.20;;
52708;SDS011;38606;52.986;6.980;2024-01-30T00:50:45;27.27;;;16.50;;
52708;SDS011;38606;52.986;6.980;2024-01-30T00:53:11;29.75;;;15.32;;
52708;SDS011;38606;52.986;6.980;2024-01-30T00:55:38;28.08;;;16.00;;
52708;SDS011;38606;52.986;6.980;2024-01-30T00:58:04;26.75;;;15.85;;
52708;SDS011;38606;52.986;6.980;2024-01-30T01:00:29;22.52;;;15.50;;
52708;SDS011;38606;52.986;6.980;2024-01-30T01:02:57;26.10;;;15.82;;
52708;SDS011;38606;52.986;6.980;2024-01-30T01:05:23;25.85;;;15.52;;
52708;SDS011;38606;52.986;6.980;2024-01-30T01:07:49;26.05;;;15.38;;
52708;SDS011;38606;52.986;6.980;2024-01-30T01:10:15;27.23;;;15.68;;
52708;SDS011;38606;52.986;6.980;2024-01-30T01:12:44;32.28;;;15.98;;
52708;SDS011;38606;52.986;6.980;2024-01-30T01:15:10;28.48;;;15.27;;
52708;SDS011;38606;52.986;6.980;2024-01-30T01:17:39;24.13;;;15.15;;
52708;SDS011;38606;52.986;6.980;2024-01-30T01:20:05;24.15;;;13.98;;
52708;SDS011;38606;52.986;6.980;2024-01-30T01:22:32;22.90;;;14.93;;
52708;SDS011;38606;52.986;6.980;2024-01-30T01:24:59;25.55;;;15.15;;
52708;SDS011;38606;52.986;6.980;2024-01-30T01:27:25;22.42;;;15.05;;
52708;SDS011;38606;52.986;6.980;2024-01-30T01:29:51;25.60;;;15.20;;
52708;SDS011;38606;52.986;6.980;2024-01-30T01:32:17;21.25;;;15.07;;
52708;SDS011;38606;52.986;6.980;2024-01-30T01:34:43;26.58;;;15.55;;
52708;SDS011;38606;52.986;6.980;2024-01-30T01:37:09;23.25;;;15.25;;
52708;SDS011;38606;52.986;6.980;2024-01-30T01:39:35;26.10;;;15.43;;
52708;SDS011;38606;52.986;6.980;2024-01-30T01:42:01;28.13;;;15.77;;
52708;SDS011;38606;52.986;6.980;2024-01-30T01:44:27;23.42;;;15.40;;
52708;SDS011;38606;52.986;6.980;2024-01-30T01:46:53;25.65;;;15.48;;
52708;SDS011;38606;52.986;6.980;2024-01-30T01:49:20;23.50;;;15.25;;
52708;SDS011;38606;52.986;6.980;2024-01-30T01:51:47;24.83;;;15.65;;
52708;SDS011;38606;52.986;6.980;2024-01-30T01:54:14;21.98;;;15.23;;
52708;SDS011;38606;52.986;6.980;2024-01-30T01:56:41;24.52;;;15.30;;
52708;SDS011;38606;52.986;6.980;2024-01-30T01:59:08;29.15;;;15.40;;
52708;SDS011;38606;52.986;6.980;2024-01-30T02:01:37;26.23;;;15.13;;
52708;SDS011;38606;52.986;6.980;2024-01-30T02:04:04;25.98;;;15.15;;
52708;SDS011;38606;52.986;6.980;2024-01-30T02:06:29;23.15;;;15.05;;
52708;SDS011;38606;52.986;6.980;2024-01-30T02:08:56;26.33;;;15.43;;
52708;SDS011;38606;52.986;6.980;2024-01-30T02:11:24;23.90;;;15.48;;
52708;SDS011;38606;52.986;6.980;2024-01-30T02:13:50;30.48;;;16.38;;
52708;SDS011;38606;52.986;6.980;2024-01-30T02:16:16;26.52;;;15.13;;
52708;SDS011;38606;52.986;6.980;2024-01-30T02:18:44;26.98;;;16.15;;
52708;SDS011;38606;52.986;6.980;2024-01-30T02:21:12;23.73;;;15.07;;
52708;SDS011;38606;52.986;6.980;2024-01-30T02:23:43;29.88;;;16.50;;
52708;SDS011;38606;52.986;6.980;2024-01-30T02:26:11;24.17;;;15.73;;
52708;SDS011;38606;52.986;6.980;2024-01-30T02:28:37;21.25;;;14.52;;
52708;SDS011;38606;52.986;6.980;2024-01-30T02:31:03;22.70;;;15.75;;
52708;SDS011;38606;52.986;6.980;2024-01-30T02:33:29;27.55;;;16.17;;
52708;SDS011;38606;52.986;6.980;2024-01-30T02:35:55;27.33;;;17.13;;
52708;SDS011;38606;52.986;6.980;2024-01-30T02:38:21;25.30;;;16.25;;
52708;SDS011;38606;52.986;6.980;2024-01-30T02:40:47;26.23;;;15.45;;
52708;SDS011;38606;52.986;6.980;2024-01-30T02:43:12;24.80;;;14.80;;
52708;SDS011;38606;52.986;6.980;2024-01-30T02:45:38;27.08;;;15.07;;
52708;SDS011;38606;52.986;6.980;2024-01-30T02:48:04;24.20;;;14.48;;
52708;SDS011;38606;52.986;6.980;2024-01-30T02:50:30;23.95;;;15.63;;
52708;SDS011;38606;52.986;6.980;2024-01-30T02:52:55;26.10;;;16.25;;
52708;SDS011;38606;52.986;6.980;2024-01-30T02:55:21;25.45;;;15.05;;
52708;SDS011;38606;52.986;6.980;2024-01-30T02:57:47;24.45;;;15.35;;
52708;SDS011;38606;52.986;6.980;2024-01-30T03:00:12;24.77;;;15.07;;
52708;SDS011;38606;52.986;6.980;2024-01-30T03:02:39;23.27;;;14.75;;
52708;SDS011;38606;52.986;6.980;2024-01-30T03:05:05;23.52;;;15.13;;
52708;SDS011;38606;52.986;6.980;2024-01-30T03:07:31;23.48;;;14.32;;
52708;SDS011;38606;52.986;6.980;2024-01-30T03:09:58;20.45;;;14.82;;
52708;SDS011;38606;52.986;6.980;2024-01-30T03:12:23;22.00;;;14.20;;
52708;SDS011;38606;52.986;6.980;2024-01-30T03:14:49;26.38;;;15.13;;
52708;SDS011;38606;52.986;6.980;2024-01-30T03:17:15;23.73;;;14.85;;
52708;SDS011;38606;52.986;6.980;2024-01-30T03:19:40;22.20;;;14.93;;
52708;SDS011;38606;52.986;6.980;2024-01-30T03:22:06;26.80;;;16.10;;
52708;SDS011;38606;52.986;6.980;2024-01-30T03:24:32;23.35;;;15.50;;
52708;SDS011;38606;52.986;6.980;2024-01-30T03:26:58;23.23;;;15.57;;
52708;SDS011;38606;52.986;6.980;2024-01-30T03:29:23;22.63;;;14.77;;
52708;SDS011;38606;52.986;6.980;2024-01-30T03:31:49;26.60;;;16.00;;
52708;SDS011;38606;52.986;6.980;2024-01-30T03:34:15;26.00;;;15.95;;
52708;SDS011;38606;52.986;6.980;2024-01-30T03:36:40;23.55;;;14.40;;
52708;SDS011;38606;52.986;6.980;2024-01-30T03:39:06;25.27;;;15.63;;
52708;SDS011;38606;52.986;6.980;2024-01-30T03:41:32;28.85;;;15.20;;
52708;SDS011;38606;52.986;6.980;2024-01-30T03:43:58;23.23;;;14.82;;
52708;SDS011;38606;52.986;6.980;2024-01-30T03:46:24;23.90;;;15.18;;
52708;SDS011;38606;52.986;6.980;2024-01-30T03:48:50;21.88;;;14.57;;
52708;SDS011;38606;52.986;6.980;2024-01-30T03:51:15;22.40;;;15.32;;
52708;SDS011;38606;52.986;6.980;2024-01-30T03:53:41;23.23;;;15.00;;
52708;SDS011;38606;52.986;6.980;2024-01-30T03:56:08;21.40;;;15.02;;
52708;SDS011;38606;52.986;6.980;2024-01-30T03:58:34;27.27;;;15.60;;
52708;SDS011;38606;52.986;6.980;2024-01-30T04:01:00;24.58;;;16.00;;
52708;SDS011;38606;52.986;6.980;2024-01-30T04:03:25;25.08;;;15.65;;
52708;SDS011;38606;52.986;6.980;2024-01-30T04:05:51;21.00;;;14.73;;
52708;SDS011;38606;52.986;6.980;2024-01-30T04:08:18;24.95;;;15.30;;
52708;SDS011;38606;52.986;6.980;2024-01-30T04:10:44;25.05;;;15.45;;
52708;SDS011;38606;52.986;6.980;2024-01-30T04:13:10;21.13;;;14.48;;
52708;SDS011;38606;52.986;6.980;2024-01-30T04:15:35;25.92;;;15.45;;
52708;SDS011;38606;52.986;6.980;2024-01-30T04:18:01;30.83;;;15.18;;
52708;SDS011;38606;52.986;6.980;2024-01-30T04:20:27;23.48;;;14.68;;
52708;SDS011;38606;52.986;6.980;2024-01-30T04:22:53;23.70;;;14.95;;
52708;SDS011;38606;52.986;6.980;2024-01-30T04:25:19;21.85;;;14.65;;
52708;SDS011;38606;52.986;6.980;2024-01-30T04:27:44;22.70;;;15.18;;
52708;SDS011;38606;52.986;6.980;2024-01-30T04:30:11;24.52;;;15.77;;
52708;SDS011;38606;52.986;6.980;2024-01-30T04:32:36;21.52;;;14.85;;
52708;SDS011;38606;52.986;6.980;2024-01-30T04:35:02;23.60;;;14.77;;
52708;SDS011;38606;52.986;6.980;2024-01-30T04:37:29;25.38;;;14.95;;
52708;SDS011;38606;52.986;6.980;2024-01-30T04:39:54;24.10;;;15.63;;
52708;SDS011;38606;52.986;6.980;2024-01-30T04:42:20;26.50;;;15.32;;
52708;SDS011;38606;52.986;6.980;2024-01-30T04:44:46;22.77;;;15.35;;
52708;SDS011;38606;52.986;6.980;2024-01-30T04:47:11;23.92;;;15.05;;
52708;SDS011;38606;52.986;6.980;2024-01-30T04:49:40;24.27;;;15.13;;
52708;SDS011;38606;52.986;6.980;2024-01-30T04:52:06;21.35;;;14.50;;
52708;SDS011;38606;52.986;6.980;2024-01-30T04:54:33;24.92;;;15.18;;
52708;SDS011;38606;52.986;6.980;2024-01-30T04:56:59;26.17;;;15.63;;
52708;SDS011;38606;52.986;6.980;2024-01-30T04:59:25;20.95;;;15.60;;
52708;SDS011;38606;52.986;6.980;2024-01-30T05:01:51;24.50;;;15.10;;
52708;SDS011;38606;52.986;6.980;2024-01-30T05:04:16;21.27;;;14.35;;
52708;SDS011;38606;52.986;6.980;2024-01-30T05:06:42;26.33;;;15.32;;
52708;SDS011;38606;52.986;6.980;2024-01-30T05:09:08;23.98;;;16.05;;
52708;SDS011;38606;52.986;6.980;2024-01-30T05:11:37;21.75;;;14.23;;
52708;SDS011;38606;52.986;6.980;2024-01-30T05:14:04;25.08;;;15.07;;
52708;SDS011;38606;52.986;6.980;2024-01-30T05:16:31;24.00;;;14.80;;
52708;SDS011;38606;52.986;6.980;2024-01-30T05:18:56;22.73;;;14.95;;
52708;SDS011;38606;52.986;6.980;2024-01-30T05:21:23;22.08;;;15.05;;
52708;SDS011;38606;52.986;6.980;2024-01-30T05:23:49;23.55;;;14.85;;
52708;SDS011;38606;52.986;6.980;2024-01-30T05:26:14;25.10;;;14.77;;
52708;SDS011;38606;52.986;6.980;2024-01-30T05:28:40;23.13;;;14.77;;
52708;SDS011;38606;52.986;6.980;2024-01-30T05:31:06;24.98;;;15.50;;
52708;SDS011;38606;52.986;6.980;2024-01-30T05:33:32;24.75;;;15.50;;
52708;SDS011;38606;52.986;6.980;2024-01-30T05:35:57;20.90;;;14.93;;
52708;SDS011;38606;52.986;6.980;2024-01-30T05:38:23;22.70;;;15.60;;
52708;SDS011;38606;52.986;6.980;2024-01-30T05:40:49;25.73;;;16.33;;
52708;SDS011;38606;52.986;6.980;2024-01-30T05:43:14;25.45;;;15.60;;
52708;SDS011;38606;52.986;6.980;2024-01-30T05:45:40;26.35;;;15.85;;
52708;SDS011;38606;52.986;6.980;2024-01-30T05:48:06;24.83;;;15.98;;
52708;SDS011;38606;52.986;6.980;2024-01-30T05:50:32;24.00;;;15.70;;
52708;SDS011;38606;52.986;6.980;2024-01-30T05:52:57;23.98;;;15.43;;
52708;SDS011;38606;52.986;6.980;2024-01-30T05:55:23;24.35;;;16.17;;
52708;SDS011;38606;52.986;6.980;2024-01-30T05:57:49;24.00;;;15.65;;
52708;SDS011;38606;52.986;6.980;2024-01-30T06:00:16;25.17;;;16.02;;
52708;SDS011;38606;52.986;6.980;2024-01-30T06:02:42;26.33;;;15.48;;
52708;SDS011;38606;52.986;6.980;2024-01-30T06:05:07;23.80;;;14.98;;
52708;SDS011;38606;52.986;6.980;2024-01-30T06:07:33;26.92;;;16.05;;
52708;SDS011;38606;52.986;6.980;2024-01-30T06:09:59;22.52;;;15.18;;
52708;SDS011;38606;52.986;6.980;2024-01-30T06:12:27;24.30;;;15.68;;
52708;SDS011;38606;52.986;6.980;2024-01-30T06:14:53;24.20;;;15.38;;
52708;SDS011;38606;52.986;6.980;2024-01-30T06:17:21;25.52;;;15.75;;
52708;SDS011;38606;52.986;6.980;2024-01-30T06:19:47;25.23;;;16.00;;
52708;SDS011;38606;52.986;6.980;2024-01-30T06:22:13;26.33;;;15.40;;
52708;SDS011;38606;52.986;6.980;2024-01-30T06:24:39;23.95;;;15.32;;
52708;SDS011;38606;52.986;6.980;2024-01-30T06:27:04;21.27;;;14.43;;
52708;SDS011;38606;52.986;6.980;2024-01-30T06:29:30;24.13;;;14.65;;
52708;SDS011;38606;52.986;6.980;2024-01-30T06:31:56;27.98;;;15.82;;
52708;SDS011;38606;52.986;6.980;2024-01-30T06:34:22;22.77;;;15.10;;
52708;SDS011;38606;52.986;6.980;2024-01-30T06:36:48;21.10;;;15.18;;
52708;SDS011;38606;52.986;6.980;2024-01-30T06:39:13;23.48;;;15.45;;
52708;SDS011;38606;52.986;6.980;2024-01-30T06:41:39;24.15;;;14.38;;
52708;SDS011;38606;52.986;6.980;2024-01-30T06:44:05;23.38;;;14.60;;
52708;SDS011;38606;52.986;6.980;2024-01-30T06:46:33;21.95;;;14.70;;
52708;SDS011;38606;52.986;6.980;2024-01-30T06:48:59;24.35;;;14.50;;
52708;SDS011;38606;52.986;6.980;2024-01-30T06:51:24;22.40;;;14.73;;
52708;SDS011;38606;52.986;6.980;2024-01-30T06:53:50;22.77;;;14.32;;
52708;SDS011;38606;52.986;6.980;2024-01-30T06:56:16;22.02;;;14.55;;
52708;SDS011;38606;52.986;6.980;2024-01-30T06:58:46;23.23;;;15.27;;
52708;SDS011;38606;52.986;6.980;2024-01-30T07:01:13;23.95;;;14.38;;
52708;SDS011;38606;52.986;6.980;2024-01-30T07:03:39;21.75;;;14.48;;
52708;SDS011;38606;52.986;6.980;2024-01-30T07:06:05;19.50;;;14.35;;
52708;SDS011;38606;52.986;6.980;2024-01-30T07:08:30;22.88;;;14.02;;
52708;SDS011;38606;52.986;6.980;2024-01-30T07:10:56;25.10;;;14.35;;
52708;SDS011;38606;52.986;6.980;2024-01-30T07:13:22;21.27;;;13.93;;
52708;SDS011;38606;52.986;6.980;2024-01-30T07:15:48;20.65;;;13.65;;
52708;SDS011;38606;52.986;6.980;2024-01-30T07:18:13;19.13;;;13.80;;
52708;SDS011;38606;52.986;6.980;2024-01-30T07:20:39;19.63;;;14.20;;
52708;SDS011;38606;52.986;6.980;2024-01-30T07:23:14;20.13;;;14.23;;
52708;SDS011;38606;52.986;6.980;2024-01-30T07:25:42;22.15;;;14.10;;
52708;SDS011;38606;52.986;6.980;2024-01-30T07:28:08;20.50;;;14.05;;
52708;SDS011;38606;52.986;6.980;2024-01-30T07:30:36;21.27;;;13.02;;
52708;SDS011;38606;52.986;6.980;2024-01-30T07:33:02;26.15;;;14.15;;
52708;SDS011;38606;52.986;6.980;2024-01-30T07:35:27;23.33;;;14.20;;
52708;SDS011;38606;52.986;6.980;2024-01-30T07:37:53;21.48;;;13.82;;
52708;SDS011;38606;52.986;6.980;2024-01-30T07:40:19;23.33;;;12.90;;
52708;SDS011;38606;52.986;6.980;2024-01-30T07:42:44;19.95;;;13.60;;
52708;SDS011;38606;52.986;6.980;2024-01-30T07:45:10;22.08;;;14.20;;
52708;SDS011;38606;52.986;6.980;2024-01-30T07:47:36;19.40;;;13.07;;
52708;SDS011;38606;52.986;6.980;2024-01-30T07:50:02;22.83;;;14.65;;
52708;SDS011;38606;52.986;6.980;2024-01-30T07:52:28;25.85;;;14.68;;
52708;SDS011;38606;52.986;6.980;2024-01-30T07:54:54;23.08;;;14.13;;
52708;SDS011;38606;52.986;6.980;2024-01-30T07:57:20;21.30;;;14.88;;
52708;SDS011;38606;52.986;6.980;2024-01-30T07:59:46;23.10;;;14.45;;
52708;SDS011;38606;52.986;6.980;2024-01-30T08:02:12;22.63;;;14.25;;
52708;SDS011;38606;52.986;6.980;2024-01-30T08:04:38;23.05;;;13.88;;
52708;SDS011;38606;52.986;6.980;2024-01-30T08:07:04;20.20;;;13.20;;
52708;SDS011;38606;52.986;6.980;2024-01-30T08:09:30;27.45;;;14.27;;
52708;SDS011;38606;52.986;6.980;2024-01-30T08:11:55;19.23;;;13.93;;
52708;SDS011;38606;52.986;6.980;2024-01-30T08:14:21;19.00;;;12.77;;
52708;SDS011;38606;52.986;6.980;2024-01-30T08:16:47;25.23;;;14.32;;
52708;SDS011;38606;52.986;6.980;2024-01-30T08:19:13;19.98;;;13.02;;
52708;SDS011;38606;52.986;6.980;2024-01-30T08:21:39;22.52;;;14.00;;
52708;SDS011;38606;52.986;6.980;2024-01-30T08:24:05;25.23;;;14.07;;
52708;SDS011;38606;52.986;6.980;2024-01-30T08:26:32;22.15;;;13.20;;
52708;SDS011;38606;52.986;6.980;2024-01-30T08:28:58;22.17;;;14.15;;
52708;SDS011;38606;52.986;6.980;2024-01-30T08:31:24;21.58;;;13.50;;
52708;SDS011;38606;52.986;6.980;2024-01-30T08:33:50;19.42;;;13.45;;
52708;SDS011;38606;52.986;6.980;2024-01-30T08:36:16;18.38;;;12.80;;
52708;SDS011;38606;52.986;6.980;2024-01-30T08:38:42;21.73;;;12.40;;
52708;SDS011;38606;52.986;6.980;2024-01-30T08:41:08;19.00;;;13.27;;
52708;SDS011;38606;52.986;6.980;2024-01-30T08:43:34;20.35;;;13.02;;
52708;SDS011;38606;52.986;6.980;2024-01-30T08:46:01;19.45;;;12.90;;
52708;SDS011;38606;52.986;6.980;2024-01-30T08:48:27;22.08;;;12.57;;
52708;SDS011;38606;52.986;6.980;2024-01-30T08:50:52;19.65;;;13.30;;
52708;SDS011;38606;52.986;6.980;2024-01-30T08:53:18;20.55;;;13.20;;
52708;SDS011;38606;52.986;6.980;2024-01-30T08:55:44;21.63;;;13.13;;
52708;SDS011;38606;52.986;6.980;2024-01-30T08:58:10;19.50;;;13.27;;
52708;SDS011;38606;52.986;6.980;2024-01-30T09:00:36;21.05;;;12.93;;
52708;SDS011;38606;52.986;6.980;2024-01-30T09:03:05;17.95;;;12.43;;
52708;SDS011;38606;52.986;6.980;2024-01-30T09:05:31;16.45;;;11.88;;
52708;SDS011;38606;52.986;6.980;2024-01-30T09:07:57;18.40;;;12.68;;
52708;SDS011;38606;52.986;6.980;2024-01-30T09:10:22;19.45;;;12.27;;
52708;SDS011;38606;52.986;6.980;2024-01-30T09:12:48;26.30;;;13.48;;
52708;SDS011;38606;52.986;6.980;2024-01-30T09:15:14;17.05;;;12.25;;
52708;SDS011;38606;52.986;6.980;2024-01-30T09:17:40;24.00;;;12.55;;
52708;SDS011;38606;52.986;6.980;2024-01-30T09:20:06;17.38;;;11.98;;
52708;SDS011;38606;52.986;6.980;2024-01-30T09:22:32;19.92;;;11.70;;
52708;SDS011;38606;52.986;6.980;2024-01-30T09:24:57;19.10;;;12.13;;
52708;SDS011;38606;52.986;6.980;2024-01-30T09:27:23;15.75;;;10.77;;
52708;SDS011;38606;52.986;6.980;2024-01-30T09:29:49;19.52;;;11.23;;
52708;SDS011;38606;52.986;6.980;2024-01-30T09:32:15;20.73;;;11.55;;
52708;SDS011;38606;52.986;6.980;2024-01-30T09:34:41;18.83;;;11.05;;
52708;SDS011;38606;52.986;6.980;2024-01-30T09:37:07;15.82;;;11.45;;
52708;SDS011;38606;52.986;6.980;2024-01-30T09:39:33;17.80;;;11.18;;
52708;SDS011;38606;52.986;6.980;2024-01-30T09:44:37;17.30;;;11.68;;
52708;SDS011;38606;52.986;6.980;2024-01-30T09:47:03;19.40;;;11.13;;
52708;SDS011;38606;52.986;6.980;2024-01-30T09:49:31;15.60;;;10.88;;
52708;SDS011;38606;52.986;6.980;2024-01-30T09:51:58;18.13;;;11.35;;
52708;SDS011;38606;52.986;6.980;2024-01-30T09:54:24;20.67;;;11.07;;
52708;SDS011;38606;52.986;6.980;2024-01-30T09:56:49;18.52;;;11.60;;
52708;SDS011;38606;52.986;6.980;2024-01-30T09:59:15;17.75;;;10.80;;
52708;SDS011;38606;52.986;6.980;2024-01-30T10:01:41;16.70;;;10.93;;
52708;SDS011;38606;52.986;6.980;2024-01-30T10:04:08;14.60;;;10.60;;
52708;SDS011;38606;52.986;6.980;2024-01-30T10:06:34;19.33;;;10.70;;
52708;SDS011;38606;52.986;6.980;2024-01-30T10:09:00;16.83;;;10.57;;
52708;SDS011;38606;52.986;6.980;2024-01-30T10:11:26;16.25;;;10.82;;
52708;SDS011;38606;52.986;6.980;2024-01-30T10:13:52;17.25;;;10.75;;
52708;SDS011;38606;52.986;6.980;2024-01-30T10:16:17;16.08;;;10.98;;
52708;SDS011;38606;52.986;6.980;2024-01-30T10:18:43;18.75;;;10.32;;
52708;SDS011;38606;52.986;6.980;2024-01-30T10:21:09;19.70;;;10.68;;
52708;SDS011;38606;52.986;6.980;2024-01-30T10:23:35;15.07;;;10.38;;
52708;SDS011;38606;52.986;6.980;2024-01-30T10:26:05;15.98;;;10.23;;
52708;SDS011;38606;52.986;6.980;2024-01-30T10:28:32;14.30;;;9.68;;
52708;SDS011;38606;52.986;6.980;2024-01-30T10:30:59;20.27;;;10.82;;
52708;SDS011;38606;52.986;6.980;2024-01-30T10:33:28;20.52;;;10.48;;
52708;SDS011;38606;52.986;6.980;2024-01-30T10:35:55;15.65;;;10.10;;
52708;SDS011;38606;52.986;6.980;2024-01-30T10:38:28;19.55;;;11.20;;
52708;SDS011;38606;52.986;6.980;2024-01-30T10:40:59;16.00;;;10.27;;
52708;SDS011;38606;52.986;6.980;2024-01-30T10:43:32;19.20;;;11.02;;
52708;SDS011;38606;52.986;6.980;2024-01-30T10:46:22;18.67;;;10.07;;
52708;SDS011;38606;52.986;6.980;2024-01-30T10:48:54;20.95;;;11.10;;
52708;SDS011;38606;52.986;6.980;2024-01-30T10:51:23;16.00;;;10.15;;
52708;SDS011;38606;52.986;6.980;2024-01-30T10:53:51;17.83;;;10.13;;
52708;SDS011;38606;52.986;6.980;2024-01-30T10:56:18;17.00;;;10.30;;
52708;SDS011;38606;52.986;6.980;2024-01-30T10:58:50;16.88;;;10.13;;
52708;SDS011;38606;52.986;6.980;2024-01-30T11:01:21;15.13;;;9.80;;
52708;SDS011;38606;52.986;6.980;2024-01-30T11:03:51;14.20;;;9.77;;
52708;SDS011;38606;52.986;6.980;2024-01-30T11:06:17;18.25;;;10.88;;
52708;SDS011;38606;52.986;6.980;2024-01-30T11:08:45;17.50;;;9.25;;
52708;SDS011;38606;52.986;6.980;2024-01-30T11:11:11;14.63;;;9.95;;
52708;SDS011;38606;52.986;6.980;2024-01-30T11:13:37;18.13;;;10.48;;
52708;SDS011;38606;52.986;6.980;2024-01-30T11:16:03;17.42;;;10.02;;
52708;SDS011;38606;52.986;6.980;2024-01-30T11:18:30;16.20;;;10.10;;
52708;SDS011;38606;52.986;6.980;2024-01-30T11:20:58;15.75;;;9.85;;
52708;SDS011;38606;52.986;6.980;2024-01-30T11:23:26;17.95;;;10.43;;
52708;SDS011;38606;52.986;6.980;2024-01-30T11:25:53;16.65;;;10.30;;
52708;SDS011;38606;52.986;6.980;2024-01-30T11:28:19;20.10;;;10.52;;
52708;SDS011;38606;52.986;6.980;2024-01-30T11:30:47;15.48;;;10.15;;
52708;SDS011;38606;52.986;6.980;2024-01-30T11:33:15;18.85;;;9.65;;
52708;SDS011;38606;52.986;6.980;2024-01-30T11:35:52;18.77;;;10.88;;
52708;SDS011;38606;52.986;6.980;2024-01-30T11:38:18;16.17;;;10.35;;
52708;SDS011;38606;52.986;6.980;2024-01-30T11:40:44;20.38;;;10.65;;
52708;SDS011;38606;52.986;6.980;2024-01-30T11:43:10;16.73;;;10.32;;
52708;SDS011;38606;52.986;6.980;2024-01-30T11:45:37;16.33;;;9.85;;
52708;SDS011;38606;52.986;6.980;2024-01-30T11:48:04;16.25;;;9.65;;
52708;SDS011;38606;52.986;6.980;2024-01-30T11:50:33;16.13;;;10.35;;
52708;SDS011;38606;52.986;6.980;2024-01-30T11:52:59;19.10;;;10.48;;
52708;SDS011;38606;52.986;6.980;2024-01-30T11:55:26;17.48;;;10.43;;
52708;SDS011;38606;52.986;6.980;2024-01-30T11:57:55;18.42;;;9.88;;
52708;SDS011;38606;52.986;6.980;2024-01-30T12:00:24;23.13;;;11.38;;
52708;SDS011;38606;52.986;6.980;2024-01-30T12:02:51;16.65;;;10.95;;
52708;SDS011;38606;52.986;6.980;2024-01-30T12:05:20;20.48;;;11.45;;
52708;SDS011;38606;52.986;6.980;2024-01-30T12:07:47;22.60;;;11.82;;
52708;SDS011;38606;52.986;6.980;2024-01-30T12:10:13;20.52;;;10.80;;
52708;SDS011;38606;52.986;6.980;2024-01-30T12:12:39;23.15;;;10.70;;
52708;SDS011;38606;52.986;6.980;2024-01-30T12:15:07;17.55;;;10.75;;
52708;SDS011;38606;52.986;6.980;2024-01-30T12:17:34;21.55;;;11.07;;
52708;SDS011;38606;52.986;6.980;2024-01-30T12:20:06;15.60;;;10.52;;
52708;SDS011;38606;52.986;6.980;2024-01-30T12:25:10;20.77;;;11.52;;
52708;SDS011;38606;52.986;6.980;2024-01-30T12:27:36;17.42;;;11.15;;
52708;SDS011;38606;52.986;6.980;2024-01-30T12:30:09;15.15;;;10.85;;
52708;SDS011;38606;52.986;6.980;2024-01-30T12:32:41;17.92;;;11.00;;
52708;SDS011;38606;52.986;6.980;2024-01-30T12:35:12;20.27;;;10.05;;
52708;SDS011;38606;52.986;6.980;2024-01-30T12:37:45;17.52;;;10.75;;
52708;SDS011;38606;52.986;6.980;2024-01-30T12:40:13;15.82;;;10.90;;
52708;SDS011;38606;52.986;6.980;2024-01-30T12:42:43;17.70;;;10.20;;
52708;SDS011;38606;52.986;6.980;2024-01-30T12:45:13;18.65;;;10.43;;
52708;SDS011;38606;52.986;6.980;2024-01-30T12:47:49;18.50;;;10.68;;
52708;SDS011;38606;52.986;6.980;2024-01-30T12:50:15;13.93;;;9.45;;
52708;SDS011;38606;52.986;6.980;2024-01-30T12:52:42;15.30;;;9.45;;
52708;SDS011;38606;52.986;6.980;2024-01-30T12:55:08;18.70;;;9.63;;
52708;SDS011;38606;52.986;6.980;2024-01-30T12:57:34;18.45;;;11.02;;
52708;SDS011;38606;52.986;6.980;2024-01-30T12:59:59;20.83;;;10.80;;
52708;SDS011;38606;52.986;6.980;2024-01-30T13:02:25;17.88;;;11.13;;
52708;SDS011;38606;52.986;6.980;2024-01-30T13:04:55;23.77;;;9.68;;
52708;SDS011;38606;52.986;6.980;2024-01-30T13:07:20;11.00;;;6.65;;
52708;SDS011;38606;52.986;6.980;2024-01-30T13:09:46;12.38;;;6.10;;
52708;SDS011;38606;52.986;6.980;2024-01-30T13:12:12;15.70;;;6.80;;
52708;SDS011;38606;52.986;6.980;2024-01-30T13:14:38;9.80;;;5.22;;
52708;SDS011;38606;52.986;6.980;2024-01-30T13:17:04;12.68;;;5.18;;
52708;SDS011;38606;52.986;6.980;2024-01-30T13:19:29;10.18;;;5.03;;
52708;SDS011;38606;52.986;6.980;2024-01-30T13:21:55;10.35;;;5.20;;
52708;SDS011;38606;52.986;6.980;2024-01-30T13:24:21;10.75;;;4.43;;
52708;SDS011;38606;52.986;6.980;2024-01-30T13:26:47;10.82;;;3.50;;
52708;SDS011;38606;52.986;6.980;2024-01-30T13:29:13;5.43;;;3.25;;
52708;SDS011;38606;52.986;6.980;2024-01-30T13:31:39;10.00;;;3.45;;
52708;SDS011;38606;52.986;6.980;2024-01-30T13:34:05;7.18;;;3.55;;
52708;SDS011;38606;52.986;6.980;2024-01-30T13:36:33;6.13;;;3.30;;
52708;SDS011;38606;52.986;6.980;2024-01-30T13:38:59;8.30;;;3.22;;
52708;SDS011;38606;52.986;6.980;2024-01-30T13:41:25;6.97;;;3.25;;
52708;SDS011;38606;52.986;6.980;2024-01-30T13:43:50;8.98;;;3.70;;
52708;SDS011;38606;52.986;6.980;2024-01-30T13:46:16;6.55;;;3.60;;
52708;SDS011;38606;52.986;6.980;2024-01-30T13:48:45;5.30;;;3.10;;
52708;SDS011;38606;52.986;6.980;2024-01-30T13:51:10;6.60;;;2.80;;
52708;SDS011;38606;52.986;6.980;2024-01-30T13:53:38;6.55;;;3.05;;
52708;SDS011;38606;52.986;6.980;2024-01-30T13:56:04;4.80;;;3.13;;
52708;SDS011;38606;52.986;6.980;2024-01-30T13:58:31;11.52;;;3.38;;
52708;SDS011;38606;52.986;6.980;2024-01-30T14:00:58;6.07;;;2.88;;
52708;SDS011;38606;52.986;6.980;2024-01-30T14:03:24;5.55;;;2.97;;
52708;SDS011;38606;52.986;6.980;2024-01-30T14:05:50;4.03;;;2.60;;
52708;SDS011;38606;52.986;6.980;2024-01-30T14:08:15;4.82;;;2.33;;
52708;SDS011;38606;52.986;6.980;2024-01-30T14:10:41;5.90;;;2.40;;
52708;SDS011;38606;52.986;6.980;2024-01-30T14:13:07;3.25;;;2.13;;
52708;SDS011;38606;52.986;6.980;2024-01-30T14:15:33;5.53;;;2.25;;
52708;SDS011;38606;52.986;6.980;2024-01-30T14:17:58;4.13;;;1.80;;
52708;SDS011;38606;52.986;6.980;2024-01-30T14:20:24;4.43;;;2.00;;
52708;SDS011;38606;52.986;6.980;2024-01-30T14:22:50;6.47;;;2.22;;
52708;SDS011;38606;52.986;6.980;2024-01-30T14:25:16;3.38;;;2.00;;